ADDS TAF Board (Experimental) INFO Settings
IDs: Format: Expanded Condensed

KMDW - Chicago/Midway Intl, IL, US

Issued at 1402 UTC 05 Jul 2015
Updated at: 1457 UTC 05 Jul 2015
Time1453Z 05/15Z 05/16Z 05/17Z 05/18Z 05/19Z 05/20Z 05/21Z 05/22Z 05/23Z 06/00Z 06/01Z 06/02Z 06/03Z
Type OBS PRVL PRVL PRVL PRVL PRVL PRVL PRVL PRVL PRVL PRVL PRVL PRVL PRVL
VIS 10 6 6 >6 >6 >6 >6 >6 >6 >6 >6 >6 >6 >6
CIG -- -- -- -- -- -- -- -- -- -- -- -- -- --
Cover CLR FEW FEW FEW FEW FEW FEW FEW FEW FEW FEW FEW FEW FEW
FltCat VFR VFR VFR VFR VFR VFR VFR VFR VFR VFR VFR VFR VFR VFR
WX -- BR BR -- -- -- -- -- -- -- -- -- -- --
WDir 240 200 200 170 170 170 170 170 170 170 170 170 170 170
WSpd 4 3 3 9 9 9 9 9 9 9 9 5 5 5
WGst -- -- -- -- -- -- -- -- -- -- -- -- -- --
R04/22
XWnd 1 -1 -1 -7 -7 -7 -7 -7 -7 -7 -7 -4 -4 -4
HWnd -4 -3 -3 -5 -5 -5 -5 -5 -5 -5 -5 -3 -3 -3
R13/31
XWnd -4 -3 -3 -5 -5 -5 -5 -5 -5 -5 -5 -3 -3 -3
HWnd -1 1 1 7 7 7 7 7 7 7 7 4 4 4

NOTE: TEMPO conditions in [brackets]. Keep in mind TEMPO conditions might be better (lower impact) than prevailing conditions.

Raw TAF
KMDW 051402Z 0514/0612 20003KT 6SM BR FEW045
  FM051700 17009KT P6SM FEW060
  FM060100 17005KT P6SM FEW250


Raw METAR
KMDW 051453Z 24004KT 10SM CLR 26/17 A3008 RMK AO2 SLP177 T02610167 50000
KMDW 051353Z 23004KT 10SM CLR 25/17 A3009 RMK AO2 SLP178 T02500167
KMDW 051253Z 25004KT 8SM CLR 23/17 A3009 RMK AO2 SLP181 T02280167
KMDW 051153Z 21003KT 4SM HZ FEW050 21/16 A3008 RMK AO2 SLP178 T02060161 10217 20183 53007

METAR Board
Radar Display
Forecast Discussion

TAF Board Legend

Potential Impact
Threat None Slight Moderate High
Visibility (sm) ≥5.1 5.1>X≥3 3>X≥1 <1
Ceiling (100 ft) ≥30.1 30.1>X≥10 10>X≥5 <5
Wind Speed (kt) <10 10≤X<20 20≤X<30 ≥30
Wind Gust (kt) <15 15≤X<25 25≤X<35 ≥35
Weather No Wx Reported VCTS,-TS,-FZRA,SN TS,FZRA +TS,+FZRA,+SN